createdAt,value
2018-09-06T00:01:37.987Z,28.62
2018-09-06T00:04:06.265Z,27.15
2018-09-06T00:06:34.452Z,32.15
2018-09-06T00:09:02.654Z,25.75
2018-09-06T00:11:30.885Z,28.87
2018-09-06T00:13:59.120Z,27.52
2018-09-06T00:16:27.338Z,27.73
2018-09-06T00:18:55.597Z,28.95
2018-09-06T00:21:23.813Z,27.15
2018-09-06T00:23:52.077Z,26.55
2018-09-06T00:26:20.336Z,27.13
2018-09-06T00:28:48.617Z,25.52
2018-09-06T00:31:16.825Z,25.40
2018-09-06T00:33:45.099Z,25.10
2018-09-06T00:36:13.333Z,24.70
2018-09-06T00:38:41.583Z,23.75
2018-09-06T00:41:09.823Z,22.15
2018-09-06T00:43:38.076Z,20.75
2018-09-06T00:46:06.531Z,22.48
2018-09-06T00:48:34.726Z,22.30
2018-09-06T00:51:02.902Z,23.95
2018-09-06T00:53:31.151Z,22.13
2018-09-06T00:55:59.319Z,20.77
2018-09-06T00:58:27.548Z,20.20
2018-09-06T01:00:55.960Z,20.82
2018-09-06T01:03:24.150Z,21.93
2018-09-06T01:05:52.332Z,20.10
2018-09-06T01:08:20.556Z,20.13
2018-09-06T01:10:48.760Z,19.85
2018-09-06T01:13:16.949Z,22.47
2018-09-06T01:15:45.163Z,24.20
2018-09-06T01:18:13.376Z,23.27
2018-09-06T01:20:41.610Z,21.27
2018-09-06T01:23:09.788Z,21.87
2018-09-06T01:25:43.415Z,20.50
2018-09-06T01:28:11.628Z,21.73
2018-09-06T01:30:39.885Z,21.70
2018-09-06T01:33:08.072Z,23.27
2018-09-06T01:35:36.316Z,19.73
2018-09-06T01:38:04.497Z,20.60
2018-09-06T01:40:32.681Z,19.90
2018-09-06T01:43:00.917Z,22.33
2018-09-06T01:45:29.165Z,23.67
2018-09-06T01:47:57.383Z,20.00
2018-09-06T01:50:25.537Z,21.47
2018-09-06T01:52:53.809Z,23.03
2018-09-06T01:55:22.057Z,18.17
2018-09-06T01:57:50.321Z,25.17
2018-09-06T02:00:18.556Z,23.63
2018-09-06T02:02:46.879Z,20.00
2018-09-06T02:05:19.356Z,22.07
2018-09-06T02:07:47.608Z,21.13
2018-09-06T02:10:15.816Z,19.77
2018-09-06T02:12:44.016Z,21.00
2018-09-06T02:15:12.281Z,24.13
2018-09-06T02:17:40.455Z,21.23
2018-09-06T02:20:08.631Z,24.27
2018-09-06T02:22:36.840Z,28.20
2018-09-06T02:25:05.289Z,28.57
2018-09-06T02:27:33.487Z,31.97
2018-09-06T02:30:01.765Z,30.00
2018-09-06T02:32:29.965Z,33.20
2018-09-06T02:34:58.290Z,39.50
2018-09-06T02:37:26.760Z,38.60
2018-09-06T02:39:55.061Z,44.57
2018-09-06T02:42:23.317Z,53.43
2018-09-06T02:44:51.554Z,54.73
2018-09-06T02:47:19.756Z,46.23
2018-09-06T02:49:53.400Z,50.10
2018-09-06T02:52:21.673Z,46.67
2018-09-06T02:54:49.883Z,51.77
2018-09-06T02:57:18.090Z,46.63
2018-09-06T02:59:47.168Z,47.97
2018-09-06T03:02:15.450Z,49.30
2018-09-06T03:04:43.973Z,50.93
2018-09-06T03:07:12.177Z,53.20
2018-09-06T03:09:40.391Z,55.40
2018-09-06T03:12:09.690Z,56.63
2018-09-06T03:14:37.925Z,66.27
2018-09-06T03:17:06.180Z,67.00
2018-09-06T03:19:34.372Z,65.57
2018-09-06T03:22:02.568Z,64.30
2018-09-06T03:24:30.765Z,66.13
2018-09-06T03:26:58.994Z,68.27
2018-09-06T03:29:27.195Z,68.40
2018-09-06T03:31:55.392Z,71.87
2018-09-06T03:34:23.610Z,71.70
2018-09-06T03:36:51.825Z,62.43
2018-09-06T03:39:20.011Z,66.87
2018-09-06T03:41:48.207Z,67.73
2018-09-06T03:44:16.386Z,65.13
2018-09-06T03:46:44.569Z,64.87
2018-09-06T03:49:12.796Z,63.80
2018-09-06T03:51:40.954Z,68.43
2018-09-06T03:54:09.256Z,65.90
2018-09-06T03:56:37.475Z,68.97
2018-09-06T03:59:05.809Z,68.03
2018-09-06T04:01:34.060Z,68.57
2018-09-06T04:04:02.241Z,71.07
2018-09-06T04:06:30.433Z,69.87
2018-09-06T04:08:58.671Z,68.60
2018-09-06T04:11:26.833Z,67.90
2018-09-06T04:13:55.181Z,69.80
2018-09-06T04:16:23.460Z,74.67
2018-09-06T04:18:51.687Z,69.77
2018-09-06T04:21:19.988Z,80.40
2018-09-06T04:23:48.152Z,69.10
2018-09-06T04:26:16.337Z,70.37
2018-09-06T04:28:44.497Z,67.77
2018-09-06T04:31:12.681Z,70.47
2018-09-06T04:33:41.035Z,65.93
2018-09-06T04:36:09.299Z,65.27
2018-09-06T04:38:37.408Z,74.07
2018-09-06T04:41:05.633Z,71.47
2018-09-06T04:43:33.959Z,66.30
2018-09-06T04:46:02.127Z,72.83
2018-09-06T04:48:30.328Z,70.23
2018-09-06T04:50:58.546Z,67.60
2018-09-06T04:53:26.718Z,65.67
2018-09-06T04:55:54.906Z,62.50
2018-09-06T04:58:23.132Z,65.13
2018-09-06T05:00:51.330Z,63.53
2018-09-06T05:03:19.467Z,70.10
2018-09-06T05:05:47.705Z,76.17
2018-09-06T05:08:15.906Z,72.00
2018-09-06T05:10:44.185Z,69.33
2018-09-06T05:13:12.431Z,75.53
2018-09-06T05:15:40.652Z,78.03
2018-09-06T05:18:08.843Z,71.20
2018-09-06T05:20:37.140Z,94.60
2018-09-06T05:23:05.831Z,80.70
2018-09-06T05:25:34.307Z,78.77
2018-09-06T05:28:02.476Z,77.47
2018-09-06T05:30:30.715Z,76.17
2018-09-06T05:32:58.911Z,73.43
2018-09-06T05:35:27.107Z,72.63
2018-09-06T05:37:55.313Z,72.87
2018-09-06T05:40:23.598Z,68.73
2018-09-06T05:42:51.809Z,74.40
2018-09-06T05:45:19.994Z,67.80
2018-09-06T05:47:53.609Z,75.73
2018-09-06T05:50:21.822Z,74.20
2018-09-06T05:52:50.057Z,76.97
2018-09-06T05:55:18.364Z,75.33
2018-09-06T05:57:46.531Z,68.90
2018-09-06T06:00:20.040Z,71.87
2018-09-06T06:02:48.813Z,71.53
2018-09-06T06:05:17.074Z,68.27
2018-09-06T06:07:56.710Z,67.33
2018-09-06T06:10:24.933Z,71.33
2018-09-06T06:12:53.471Z,65.87
2018-09-06T06:15:21.676Z,68.90
2018-09-06T06:17:49.870Z,65.03
2018-09-06T06:20:18.107Z,71.87
2018-09-06T06:22:46.411Z,60.67
2018-09-06T06:25:14.616Z,64.73
2018-09-06T06:27:42.816Z,65.43
2018-09-06T06:30:11.037Z,69.47
2018-09-06T06:32:39.281Z,70.50
2018-09-06T06:35:07.495Z,69.20
2018-09-06T06:37:35.714Z,67.57
2018-09-06T06:40:03.910Z,62.17
2018-09-06T06:42:32.158Z,67.67
2018-09-06T06:45:00.339Z,64.23
2018-09-06T06:47:28.591Z,63.53
2018-09-06T06:49:56.800Z,60.10
2018-09-06T06:52:25.073Z,73.17
2018-09-06T06:54:53.269Z,71.57
2018-09-06T06:57:21.457Z,69.17
2018-09-06T06:59:49.678Z,67.47
2018-09-06T07:02:17.892Z,62.40
2018-09-06T07:04:46.069Z,59.40
2018-09-06T07:07:14.325Z,58.33
2018-09-06T07:09:42.537Z,59.83
2018-09-06T07:12:10.833Z,62.43
2018-09-06T07:14:39.045Z,53.37
2018-09-06T07:17:07.345Z,46.27
2018-09-06T07:19:35.623Z,47.60
2018-09-06T07:22:03.859Z,45.20
2018-09-06T07:24:32.101Z,43.03
2018-09-06T07:27:00.323Z,46.70
2018-09-06T07:29:28.607Z,42.37
2018-09-06T07:31:56.800Z,41.60
2018-09-06T07:34:24.992Z,43.53
2018-09-06T07:36:53.175Z,46.73
2018-09-06T07:39:21.411Z,42.83
2018-09-06T07:41:49.618Z,39.43
2018-09-06T07:44:17.828Z,40.13
2018-09-06T07:46:46.140Z,41.20
2018-09-06T07:49:14.315Z,38.97
2018-09-06T07:51:42.535Z,36.83
2018-09-06T07:54:10.742Z,39.63
2018-09-06T07:56:38.946Z,42.60
2018-09-06T07:59:07.177Z,35.63
2018-09-06T08:01:35.381Z,38.87
2018-09-06T08:04:03.621Z,39.13
2018-09-06T08:06:31.797Z,40.17
2018-09-06T08:09:00.013Z,34.17
2018-09-06T08:11:28.213Z,42.07
2018-09-06T08:13:56.365Z,37.67
2018-09-06T08:16:24.603Z,41.77
2018-09-06T08:18:52.877Z,41.17
2018-09-06T08:21:21.090Z,40.70
2018-09-06T08:23:49.345Z,41.43
2018-09-06T08:26:17.601Z,39.17
2018-09-06T08:28:45.892Z,36.17
2018-09-06T08:31:14.217Z,37.87
2018-09-06T08:33:42.325Z,38.53
2018-09-06T08:36:10.545Z,33.57
2018-09-06T08:38:38.780Z,33.73
2018-09-06T08:41:07.030Z,35.50
2018-09-06T08:43:35.222Z,38.83
2018-09-06T08:46:03.412Z,37.00
2018-09-06T08:48:31.565Z,35.73
2018-09-06T08:50:59.791Z,33.77
2018-09-06T08:53:27.982Z,33.87
2018-09-06T08:55:56.186Z,33.27
2018-09-06T08:58:24.460Z,35.37
2018-09-06T09:00:58.020Z,31.57
2018-09-06T09:03:26.199Z,29.43
2018-09-06T09:05:54.462Z,27.27
2018-09-06T09:08:22.658Z,26.27
2018-09-06T09:10:50.843Z,25.40
2018-09-06T09:13:19.104Z,26.60
2018-09-06T09:15:47.300Z,28.60
2018-09-06T09:18:15.533Z,26.80
2018-09-06T09:20:43.788Z,26.15
2018-09-06T09:23:12.229Z,26.00
2018-09-06T09:25:40.462Z,24.23
2018-09-06T09:28:08.678Z,22.75
2018-09-06T09:30:36.912Z,22.10
2018-09-06T09:33:05.231Z,24.00
2018-09-06T09:35:33.469Z,25.88
2018-09-06T09:38:01.721Z,26.55
2018-09-06T09:40:29.894Z,23.18
2018-09-06T09:42:58.100Z,20.00
2018-09-06T09:45:26.309Z,14.65
2018-09-06T09:47:54.526Z,12.65
2018-09-06T09:52:50.200Z,17.85
2018-09-06T09:55:18.438Z,11.85
2018-09-06T09:57:46.696Z,13.35
2018-09-06T10:00:14.885Z,14.10
2018-09-06T10:02:48.609Z,10.80
2018-09-06T10:05:22.333Z,13.72
2018-09-06T10:07:56.337Z,17.02
2018-09-06T10:10:24.748Z,21.15
2018-09-06T10:12:52.981Z,16.87
2018-09-06T10:15:21.225Z,17.87
2018-09-06T10:17:49.431Z,20.88
2018-09-06T10:20:17.604Z,28.73
2018-09-06T10:22:45.781Z,24.35
2018-09-06T10:25:13.999Z,26.57
2018-09-06T10:27:42.172Z,27.27
2018-09-06T10:30:10.345Z,26.48
2018-09-06T10:32:38.530Z,34.67
2018-09-06T10:35:07.034Z,39.23
2018-09-06T10:37:35.228Z,41.65
2018-09-06T10:40:03.522Z,42.55
2018-09-06T10:42:31.648Z,42.03
2018-09-06T10:44:59.851Z,43.42
2018-09-06T10:47:28.042Z,42.70
2018-09-06T10:49:56.224Z,43.90
2018-09-06T10:52:24.459Z,41.75
2018-09-06T10:54:52.667Z,44.85
2018-09-06T10:57:20.903Z,42.65
2018-09-06T10:59:49.092Z,46.90
2018-09-06T11:02:17.301Z,39.23
2018-09-06T11:04:45.588Z,38.88
2018-09-06T11:07:13.844Z,39.20
2018-09-06T11:09:42.042Z,42.43
2018-09-06T11:12:10.255Z,46.25
2018-09-06T11:14:38.430Z,42.10
2018-09-06T11:17:06.611Z,38.50
2018-09-06T11:19:34.829Z,41.28
2018-09-06T11:22:03.135Z,45.63
2018-09-06T11:24:31.334Z,43.63
2018-09-06T11:26:59.516Z,46.92
2018-09-06T11:29:27.755Z,48.83
2018-09-06T11:31:55.982Z,47.50
2018-09-06T11:34:24.256Z,47.70
2018-09-06T11:36:52.440Z,46.13
2018-09-06T11:39:20.654Z,55.38
2018-09-06T11:41:48.882Z,53.60
2018-09-06T11:44:17.109Z,52.40
2018-09-06T11:46:45.362Z,53.83
2018-09-06T11:49:13.544Z,57.90
2018-09-06T11:51:41.770Z,52.93
2018-09-06T11:54:09.976Z,49.18
2018-09-06T11:56:38.173Z,52.40
2018-09-06T11:59:06.364Z,49.00
2018-09-06T12:01:34.558Z,52.00
2018-09-06T12:04:02.898Z,52.48
2018-09-06T12:06:31.131Z,52.62
2018-09-06T12:08:59.294Z,54.48
2018-09-06T12:11:27.551Z,49.33
2018-09-06T12:13:55.732Z,51.23
2018-09-06T12:16:23.925Z,49.75
2018-09-06T12:18:52.127Z,47.45
2018-09-06T12:21:20.340Z,56.55
2018-09-06T12:23:48.539Z,56.58
2018-09-06T12:26:16.727Z,54.03
2018-09-06T12:28:44.950Z,54.25
2018-09-06T12:31:13.144Z,58.35
2018-09-06T12:33:41.480Z,56.25
2018-09-06T12:36:09.690Z,57.27
2018-09-06T12:38:37.941Z,61.42
2018-09-06T12:41:06.247Z,56.85
2018-09-06T12:43:34.448Z,54.25
2018-09-06T12:46:02.628Z,59.08
2018-09-06T12:48:30.976Z,60.30
2018-09-06T12:50:59.280Z,58.85
2018-09-06T12:53:27.501Z,54.00
2018-09-06T12:55:55.721Z,51.02
2018-09-06T12:58:23.919Z,44.98
2018-09-06T13:00:53.240Z,43.87
2018-09-06T13:03:21.596Z,48.10
2018-09-06T13:05:50.300Z,46.70
2018-09-06T13:08:18.519Z,45.05
2018-09-06T13:10:46.833Z,43.33
2018-09-06T13:13:15.063Z,44.33
2018-09-06T13:15:43.255Z,43.45
2018-09-06T13:18:11.515Z,43.15
2018-09-06T13:20:39.718Z,39.80
2018-09-06T13:23:07.912Z,43.28
2018-09-06T13:25:36.100Z,38.83
2018-09-06T13:28:04.357Z,37.08
2018-09-06T13:30:32.523Z,33.65
2018-09-06T13:33:00.735Z,33.90
2018-09-06T13:35:28.951Z,29.45
2018-09-06T13:37:57.098Z,30.17
2018-09-06T13:40:25.316Z,31.77
2018-09-06T13:42:53.500Z,32.70
2018-09-06T13:45:21.721Z,32.28
2018-09-06T13:47:49.915Z,34.15
2018-09-06T13:50:18.113Z,32.55
2018-09-06T13:52:46.318Z,33.60
2018-09-06T13:55:14.537Z,35.35
2018-09-06T13:57:42.756Z,34.00
2018-09-06T14:00:10.988Z,38.45
2018-09-06T14:02:39.255Z,36.00
2018-09-06T14:05:07.917Z,37.93
2018-09-06T14:07:36.055Z,41.42
2018-09-06T14:10:04.433Z,40.48
2018-09-06T14:12:32.624Z,49.35
2018-09-06T14:15:00.830Z,47.25
2018-09-06T14:17:29.008Z,46.08
2018-09-06T14:19:57.211Z,48.40
2018-09-06T14:22:25.408Z,46.95
2018-09-06T14:24:53.674Z,44.10
2018-09-06T14:27:21.904Z,43.73
2018-09-06T14:29:50.121Z,46.60
2018-09-06T14:32:18.344Z,43.50
2018-09-06T14:34:46.528Z,49.50
2018-09-06T14:37:15.122Z,47.73
2018-09-06T14:39:43.841Z,42.40
2018-09-06T14:42:12.077Z,45.33
2018-09-06T14:44:40.321Z,39.60
2018-09-06T14:47:08.668Z,42.25
2018-09-06T14:49:37.218Z,40.92
2018-09-06T14:52:05.864Z,38.92
2018-09-06T14:54:34.124Z,39.30
2018-09-06T14:57:02.354Z,50.80
2018-09-06T14:59:30.579Z,42.70
2018-09-06T15:01:58.885Z,43.63
2018-09-06T15:04:27.075Z,42.85
2018-09-06T15:06:55.303Z,39.18
2018-09-06T15:09:23.562Z,44.45
2018-09-06T15:11:51.823Z,40.63
2018-09-06T15:14:20.062Z,43.80
2018-09-06T15:16:48.276Z,39.90
2018-09-06T15:19:16.811Z,42.17
2018-09-06T15:21:45.037Z,44.00
2018-09-06T15:24:13.413Z,39.27
2018-09-06T15:26:41.654Z,39.88
2018-09-06T15:29:09.896Z,38.10
2018-09-06T15:31:38.146Z,41.35
2018-09-06T15:34:06.643Z,38.63
2018-09-06T15:36:34.876Z,37.95
2018-09-06T15:39:03.096Z,39.70
2018-09-06T15:41:31.305Z,35.17
2018-09-06T15:43:59.493Z,38.45
2018-09-06T15:46:27.708Z,38.92
2018-09-06T15:48:55.954Z,40.90
2018-09-06T15:51:24.166Z,37.10
2018-09-06T15:53:52.445Z,37.98
2018-09-06T15:56:20.655Z,39.18
2018-09-06T15:58:48.827Z,43.40
2018-09-06T16:01:17.222Z,41.77
2018-09-06T16:03:45.468Z,40.60
2018-09-06T16:06:13.603Z,39.70
2018-09-06T16:08:41.800Z,39.30
2018-09-06T16:11:10.064Z,37.78
2018-09-06T16:13:38.287Z,37.42
2018-09-06T16:16:06.473Z,35.43
2018-09-06T16:18:34.677Z,34.65
2018-09-06T16:21:02.924Z,30.92
2018-09-06T16:23:31.123Z,26.07
2018-09-06T16:25:59.306Z,25.17
2018-09-06T16:28:27.771Z,27.90
2018-09-06T16:30:56.021Z,26.93
2018-09-06T16:33:24.236Z,25.97
2018-09-06T16:35:52.491Z,28.55
2018-09-06T16:38:20.721Z,27.17
2018-09-06T16:40:48.942Z,29.77
2018-09-06T16:43:17.222Z,32.20
2018-09-06T16:45:45.466Z,34.60
2018-09-06T16:48:13.735Z,34.08
2018-09-06T16:50:42.026Z,35.10
2018-09-06T16:53:10.319Z,33.92
2018-09-06T16:55:38.560Z,37.13
2018-09-06T16:58:06.814Z,34.35
2018-09-06T17:00:35.079Z,31.80
2018-09-06T17:03:03.287Z,34.10
2018-09-06T17:05:31.517Z,35.58
2018-09-06T17:07:59.860Z,33.88
2018-09-06T17:10:28.108Z,36.20
2018-09-06T17:12:56.430Z,31.62
2018-09-06T17:15:24.712Z,35.83
2018-09-06T17:17:52.929Z,33.73
2018-09-06T17:20:21.262Z,32.75
2018-09-06T17:22:49.504Z,33.18
2018-09-06T17:25:17.913Z,34.98
2018-09-06T17:27:46.251Z,32.45
2018-09-06T17:30:14.521Z,35.60
2018-09-06T17:32:43.624Z,32.67
2018-09-06T17:35:11.833Z,35.70
2018-09-06T17:37:40.996Z,37.70
2018-09-06T17:40:09.205Z,36.23
2018-09-06T17:42:37.400Z,34.33
2018-09-06T17:45:05.657Z,38.02
2018-09-06T17:47:33.978Z,36.38
2018-09-06T17:50:02.170Z,38.05
2018-09-06T17:52:30.469Z,42.62
2018-09-06T17:54:58.885Z,38.48
2018-09-06T17:57:27.105Z,37.83
2018-09-06T17:59:55.441Z,34.38
2018-09-06T18:02:23.654Z,33.18
2018-09-06T18:04:51.918Z,35.00
2018-09-06T18:07:20.170Z,31.43
2018-09-06T18:09:48.501Z,32.00
2018-09-06T18:12:16.787Z,39.30
2018-09-06T18:14:45.041Z,35.90
2018-09-06T18:17:13.286Z,37.60
2018-09-06T18:19:41.466Z,41.30
2018-09-06T18:22:09.784Z,35.67
2018-09-06T18:24:38.080Z,37.17
2018-09-06T18:27:06.416Z,37.23
2018-09-06T18:29:34.661Z,33.53
2018-09-06T18:32:02.913Z,37.10
2018-09-06T18:34:32.400Z,36.83
2018-09-06T18:37:00.761Z,42.60
2018-09-06T18:39:29.219Z,36.97
2018-09-06T18:42:02.612Z,40.40
2018-09-06T18:44:31.036Z,42.47
2018-09-06T18:46:59.485Z,39.50
2018-09-06T18:49:27.865Z,43.10
2018-09-06T18:51:56.087Z,43.17
2018-09-06T18:54:24.285Z,43.13
2018-09-06T18:56:52.515Z,40.27
2018-09-06T18:59:21.112Z,38.37
2018-09-06T19:01:49.360Z,40.23
2018-09-06T19:04:18.582Z,34.47
2018-09-06T19:06:46.927Z,36.73
2018-09-06T19:09:15.257Z,37.10
2018-09-06T19:11:43.450Z,34.33
2018-09-06T19:14:11.739Z,30.87
2018-09-06T19:16:40.079Z,32.73
2018-09-06T19:19:08.302Z,36.67
2018-09-06T19:21:36.507Z,34.67
2018-09-06T19:24:04.812Z,31.27
2018-09-06T19:26:33.163Z,34.60
2018-09-06T19:29:01.428Z,34.43
2018-09-06T19:31:29.765Z,31.77
2018-09-06T19:33:58.025Z,35.43
2018-09-06T19:36:26.267Z,34.90
2018-09-06T19:38:54.544Z,40.07
2018-09-06T19:41:22.904Z,35.03
2018-09-06T19:43:51.131Z,41.00
2018-09-06T19:46:19.326Z,37.43
2018-09-06T19:48:47.635Z,34.87
2018-09-06T19:51:15.924Z,34.50
2018-09-06T19:53:44.256Z,35.90
2018-09-06T19:56:12.645Z,33.27
2018-09-06T19:58:41.077Z,33.93
2018-09-06T20:01:09.296Z,33.37
2018-09-06T20:03:37.510Z,27.60
2018-09-06T20:06:05.766Z,27.33
2018-09-06T20:08:33.998Z,32.07
2018-09-06T20:11:02.317Z,26.17
2018-09-06T20:13:30.812Z,24.47
2018-09-06T20:15:59.164Z,24.87
2018-09-06T20:18:27.359Z,21.07
2018-09-06T20:20:55.716Z,18.17
2018-09-06T20:23:23.989Z,15.50
2018-09-06T20:25:52.276Z,15.50
2018-09-06T20:28:21.623Z,11.90
2018-09-06T20:30:49.756Z,14.77
2018-09-06T20:33:18.071Z,10.90
2018-09-06T20:35:46.273Z,11.67
2018-09-06T20:38:14.500Z,9.93
2018-09-06T20:40:42.825Z,9.83
2018-09-06T20:43:11.041Z,11.87
2018-09-06T20:45:39.392Z,10.90
2018-09-06T20:48:07.596Z,23.47
2018-09-06T20:50:36.154Z,13.17
2018-09-06T20:53:05.004Z,12.27
2018-09-06T20:55:33.553Z,13.30
2018-09-06T20:58:02.825Z,11.10
2018-09-06T21:00:31.013Z,10.37
2018-09-06T21:03:01.343Z,11.67
2018-09-06T21:05:29.684Z,9.50
2018-09-06T21:07:57.877Z,8.00
2018-09-06T21:10:26.243Z,9.50
2018-09-06T21:12:54.454Z,8.93
2018-09-06T21:15:22.712Z,9.70
2018-09-06T21:17:50.877Z,9.57
2018-09-06T21:20:19.084Z,11.77
2018-09-06T21:22:47.371Z,8.37
2018-09-06T21:25:15.557Z,9.40
2018-09-06T21:27:43.743Z,8.63
2018-09-06T21:30:11.981Z,8.30
2018-09-06T21:32:40.307Z,9.30
2018-09-06T21:35:08.539Z,10.07
2018-09-06T21:37:36.796Z,10.87
2018-09-06T21:40:05.009Z,10.73
2018-09-06T21:42:33.236Z,9.40
2018-09-06T21:45:01.419Z,13.53
2018-09-06T21:47:29.581Z,10.27
2018-09-06T21:49:57.774Z,10.87
2018-09-06T21:52:25.948Z,10.00
2018-09-06T21:54:54.173Z,10.63
2018-09-06T21:57:22.392Z,9.73
2018-09-06T21:59:50.648Z,10.57
2018-09-06T22:02:24.280Z,10.47
2018-09-06T22:04:52.469Z,11.13
2018-09-06T22:07:20.803Z,10.33
2018-09-06T22:09:49.013Z,10.13
2018-09-06T22:12:18.174Z,15.27
2018-09-06T22:14:47.789Z,11.33
2018-09-06T22:17:16.241Z,12.40
2018-09-06T22:19:44.750Z,11.43
2018-09-06T22:22:12.916Z,10.93
2018-09-06T22:24:41.603Z,9.67
2018-09-06T22:27:09.839Z,10.57
2018-09-06T22:29:38.019Z,10.57
2018-09-06T22:32:06.265Z,11.73
2018-09-06T22:34:34.446Z,11.10
2018-09-06T22:37:02.689Z,10.07
2018-09-06T22:39:30.909Z,10.77
2018-09-06T22:41:59.228Z,10.13
2018-09-06T22:44:27.454Z,12.23
2018-09-06T22:46:55.656Z,9.07
2018-09-06T22:49:23.829Z,9.87
2018-09-06T22:51:52.048Z,9.13
2018-09-06T22:54:20.266Z,9.70
2018-09-06T22:56:48.769Z,14.40
2018-09-06T22:59:16.952Z,10.13
2018-09-06T23:01:45.144Z,11.30
2018-09-06T23:04:13.342Z,11.53
2018-09-06T23:06:41.543Z,8.93
2018-09-06T23:09:09.724Z,8.97
2018-09-06T23:11:37.897Z,9.43
2018-09-06T23:14:06.157Z,13.97
2018-09-06T23:16:34.364Z,8.23
2018-09-06T23:19:02.582Z,11.27
2018-09-06T23:21:30.785Z,9.73
2018-09-06T23:23:59.018Z,9.23
2018-09-06T23:26:27.212Z,8.90
2018-09-06T23:28:55.417Z,9.30
2018-09-06T23:31:23.684Z,11.00
2018-09-06T23:33:51.846Z,8.83
2018-09-06T23:36:20.081Z,11.50
2018-09-06T23:38:48.275Z,10.73
2018-09-06T23:41:16.536Z,9.30
2018-09-06T23:43:44.739Z,9.07
2018-09-06T23:46:12.993Z,9.03
2018-09-06T23:48:41.235Z,7.63
2018-09-06T23:51:09.451Z,7.67
2018-09-06T23:53:37.621Z,14.63
2018-09-06T23:56:05.790Z,10.60
2018-09-06T23:58:33.972Z,10.83
